Time;durP1;ratioP1;P1;durP2;ratioP2;P2;SDS_P1;SDS_P2;PMS_P1;PMS_P2;Temp;Humidity;BMP_temperature;BMP_pressure;BME280_temperature;BME280_humidity;BME280_pressure;Samples;Min_cycle;Max_cycle;Signal;HPM_P1;HPM_P2
2023/09/04 00:00:53;;;;;;;1.70;1.30;;;;;;;26.84;40.98;100574.27;103679;1290;71122;-91
2023/09/04 00:03:20;;;;;;;4.30;1.30;;;;;;;26.83;40.82;100585.85;103752;1290;69146;-85
2023/09/04 00:05:46;;;;;;;2.80;1.50;;;;;;;26.83;40.83;100594.52;103711;1288;69035;-85
2023/09/04 00:08:11;;;;;;;2.50;1.20;;;;;;;26.83;40.87;100598.08;103761;1289;69262;-85
2023/09/04 00:10:37;;;;;;;1.40;1.10;;;;;;;26.83;40.81;100602.85;103862;1288;69251;-85
2023/09/04 00:13:03;;;;;;;1.40;1.10;;;;;;;26.82;40.92;100601.52;103725;1289;69318;-85
2023/09/04 00:15:33;;;;;;;2.10;1.30;;;;;;;26.82;40.94;100598.48;103788;1292;69209;-86
2023/09/04 00:18:06;;;;;;;2.80;1.20;;;;;;;26.81;40.96;100598.44;104146;1287;69114;-85
2023/09/04 00:20:31;;;;;;;1.40;1.30;;;;;;;26.81;40.93;100604.33;103999;1293;69254;-85
2023/09/04 00:22:57;;;;;;;2.30;1.30;;;;;;;26.80;40.93;100608.67;104051;1291;69271;-85
2023/09/04 00:25:22;;;;;;;2.20;1.30;;;;;;;26.81;41.03;100610.69;104001;1288;69183;-85
2023/09/04 00:27:48;;;;;;;2.50;1.30;;;;;;;26.81;41.10;100614.09;104118;1288;69228;-86
2023/09/04 00:30:14;;;;;;;3.80;1.30;;;;;;;26.80;41.06;100619.52;103897;1289;69103;-85
2023/09/04 00:32:39;;;;;;;1.50;1.20;;;;;;;26.80;41.02;100624.33;103905;1288;69295;-85
2023/09/04 00:35:06;;;;;;;2.00;1.20;;;;;;;26.79;41.04;100635.79;103972;1288;69255;-85
2023/09/04 00:37:31;;;;;;;1.40;1.10;;;;;;;26.78;41.04;100640.80;103865;1288;69206;-85
2023/09/04 00:39:57;;;;;;;1.30;1.10;;;;;;;26.78;40.79;100649.31;103988;1289;69266;-85
2023/09/04 00:42:22;;;;;;;1.30;1.20;;;;;;;26.79;41.06;100653.91;103899;1294;66815;-85
2023/09/04 00:45:03;;;;;;;;;;;;;;;26.78;40.88;100662.60;104081;1288;69064;-84
2023/09/04 00:47:28;;;;;;;2.40;1.20;;;;;;;26.76;40.81;100666.51;103972;1288;69264;-84
2023/09/04 00:49:54;;;;;;;1.30;1.10;;;;;;;26.76;40.85;100666.98;103952;1287;69270;-85
2023/09/04 00:52:22;;;;;;;1.90;1.10;;;;;;;26.76;40.86;100666.29;104021;1287;69308;-85
2023/09/04 00:54:47;;;;;;;1.80;1.40;;;;;;;26.76;40.83;100667.98;103731;1288;69279;-85
2023/09/04 00:57:13;;;;;;;1.80;1.40;;;;;;;26.76;40.79;100664.55;103906;1291;69797;-84
2023/09/04 00:59:40;;;;;;;1.70;1.20;;;;;;;26.77;40.94;100667.44;103982;1288;69229;-84
2023/09/04 01:02:05;;;;;;;1.60;1.30;;;;;;;26.77;41.09;100666.90;103793;1288;74459;-84
2023/09/04 01:04:31;;;;;;;1.60;1.10;;;;;;;26.76;41.17;100669.70;103703;1288;69267;-85
2023/09/04 01:06:57;;;;;;;1.60;1.30;;;;;;;26.76;41.13;100667.52;104065;1288;70421;-85
2023/09/04 01:09:30;;;;;;;1.70;1.10;;;;;;;26.76;41.19;100672.65;104057;1291;69196;-90
2023/09/04 01:11:59;;;;;;;1.50;1.00;;;;;;;26.75;41.12;100668.89;104680;1288;69150;-85
2023/09/04 01:14:25;;;;;;;1.30;1.10;;;;;;;26.76;41.13;100671.61;103988;1287;74663;-85
2023/09/04 01:16:50;;;;;;;2.00;1.40;;;;;;;26.75;41.38;100663.06;103753;1288;69300;-85
2023/09/04 01:19:17;;;;;;;2.60;1.30;;;;;;;26.75;41.25;100654.80;104352;1288;69218;-85
2023/09/04 01:21:42;;;;;;;1.80;1.40;;;;;;;26.75;41.21;100654.34;103748;1288;69370;-86
2023/09/04 01:24:09;;;;;;;1.70;1.10;;;;;;;26.74;41.20;100656.95;104541;1288;69656;-85
2023/09/04 01:26:40;;;;;;;2.20;1.20;;;;;;;26.74;41.29;100661.53;104109;1291;69130;-85
2023/09/04 01:29:14;;;;;;;2.10;1.20;;;;;;;26.74;41.54;100656.27;103974;1288;73540;-85
2023/09/04 01:32:02;;;;;;;1.30;1.20;;;;;;;26.74;41.40;100656.04;103757;1288;69138;-85
2023/09/04 01:34:30;;;;;;;2.00;1.00;;;;;;;26.73;41.44;100657.02;103722;1293;69267;-85
2023/09/04 01:36:55;;;;;;;2.60;1.20;;;;;;;26.73;41.45;100657.59;103952;1291;69171;-85
2023/09/04 01:39:27;;;;;;;2.50;1.20;;;;;;;26.73;41.43;100652.33;103716;1288;69142;-91
2023/09/04 01:41:53;;;;;;;1.40;1.30;;;;;;;26.72;41.33;100646.72;103855;1288;74388;-85
2023/09/04 01:44:19;;;;;;;1.70;1.20;;;;;;;26.73;41.60;100639.68;103866;1291;69250;-85
2023/09/04 01:46:44;;;;;;;1.30;1.10;;;;;;;26.72;41.61;100639.04;103858;1294;69228;-85
2023/09/04 01:49:10;;;;;;;1.30;1.20;;;;;;;26.72;41.57;100639.19;103920;1288;69255;-85
2023/09/04 01:51:35;;;;;;;4.60;1.50;;;;;;;26.72;41.51;100637.48;104582;1289;69262;-85
2023/09/04 01:54:01;;;;;;;1.30;1.20;;;;;;;26.72;41.64;100631.80;103858;1288;69144;-85
2023/09/04 01:56:26;;;;;;;1.40;1.00;;;;;;;26.72;41.76;100627.38;103761;1288;69271;-84
2023/09/04 01:58:52;;;;;;;1.90;1.30;;;;;;;26.72;41.59;100624.65;103985;1291;69244;-84
2023/09/04 02:01:17;;;;;;;1.40;1.30;;;;;;;26.71;41.75;100618.66;103842;1288;69256;-84
2023/09/04 02:03:44;;;;;;;2.30;1.30;;;;;;;26.71;41.64;100623.88;103863;1288;69280;-85
2023/09/04 02:06:26;;;;;;;1.20;1.10;;;;;;;26.70;41.73;100624.98;103715;1288;69077;-90
2023/09/04 02:08:51;;;;;;;2.00;1.30;;;;;;;26.70;41.90;100627.01;103883;1288;69195;-85
2023/09/04 02:11:17;;;;;;;2.10;1.40;;;;;;;26.70;41.83;100630.71;103768;1294;69193;-84
2023/09/04 02:13:45;;;;;;;4.60;1.70;;;;;;;26.69;41.83;100630.10;103758;1289;69345;-85
2023/09/04 02:16:11;;;;;;;1.90;1.50;;;;;;;26.70;41.59;100629.70;103981;1291;69264;-85
2023/09/04 02:18:38;;;;;;;1.30;1.20;;;;;;;26.69;41.69;100628.20;103977;1288;69291;-85
2023/09/04 02:23:40;;;;;;;2.00;1.30;;;;;;;26.68;41.77;100629.98;104175;1291;69251;-85
2023/09/04 02:26:05;;;;;;;1.40;1.30;;;;;;;26.69;41.81;100629.30;104012;1288;69203;-85
2023/09/04 02:28:31;;;;;;;1.60;1.40;;;;;;;26.69;41.66;100627.49;104046;1291;69142;-85
2023/09/04 02:30:56;;;;;;;2.60;1.50;;;;;;;26.68;41.95;100628.42;104016;1288;67482;-85
2023/09/04 02:33:22;;;;;;;1.40;1.30;;;;;;;26.69;41.77;100630.33;104074;1291;69262;-85
2023/09/04 02:35:47;;;;;;;1.50;1.30;;;;;;;26.69;41.75;100628.32;104035;1288;69271;-85
2023/09/04 02:38:14;;;;;;;2.50;1.30;;;;;;;26.68;41.80;100629.15;103929;1288;69249;-84
2023/09/04 02:40:39;;;;;;;1.20;1.10;;;;;;;26.68;41.81;100631.23;103976;1289;69241;-85
2023/09/04 02:43:05;;;;;;;1.70;1.50;;;;;;;26.68;41.73;100624.94;103987;1287;69256;-85
2023/09/04 02:45:32;;;;;;;3.30;1.20;;;;;;;26.68;41.51;100623.96;104183;1288;69610;-84
2023/09/04 02:50:31;;;;;;;2.60;1.30;;;;;;;26.66;41.58;100617.02;104291;1286;69245;-84
2023/09/04 02:52:57;;;;;;;1.90;1.30;;;;;;;26.67;41.89;100612.21;104183;1285;69253;-85
2023/09/04 02:55:22;;;;;;;1.90;1.20;;;;;;;26.66;41.58;100607.61;104179;1286;69260;-85
2023/09/04 02:57:48;;;;;;;2.10;1.30;;;;;;;26.66;41.61;100599.77;104166;1288;69111;-84
2023/09/04 03:00:13;;;;;;;1.70;1.20;;;;;;;26.66;41.71;100591.95;104185;1289;69253;-85
2023/09/04 03:02:39;;;;;;;2.00;1.50;;;;;;;26.64;41.62;100592.75;104120;1288;70507;-84
2023/09/04 03:05:05;;;;;;;2.40;1.30;;;;;;;26.58;41.58;100595.97;104380;1285;69274;-88
2023/09/04 03:07:31;;;;;;;2.30;1.30;;;;;;;26.48;41.49;100595.86;104819;1289;69141;-88
2023/09/04 03:09:58;;;;;;;1.50;1.30;;;;;;;26.35;41.29;100597.59;105288;1285;69200;-88
2023/09/04 03:12:27;;;;;;;2.50;1.30;;;;;;;26.21;41.56;100596.95;105845;1287;69231;-89
2023/09/04 03:15:04;;;;;;;2.10;1.30;;;;;;;26.08;41.67;100600.63;104812;1288;69286;-92
2023/09/04 03:17:31;;;;;;;5.30;1.60;;;;;;;25.93;41.69;100602.96;104419;1288;69246;-88
2023/09/04 03:19:57;;;;;;;4.00;1.00;;;;;;;25.81;41.78;100610.45;104678;1286;69267;-88
2023/09/04 03:22:23;;;;;;;4.30;1.50;;;;;;;25.77;42.30;100610.23;105175;1285;67356;-88
2023/09/04 03:24:49;;;;;;;6.50;2.10;;;;;;;25.76;42.33;100610.03;105534;1285;67677;-88
2023/09/04 03:27:15;;;;;;;4.10;2.50;;;;;;;25.76;42.49;100608.74;104567;1288;69269;-88
2023/09/04 03:29:40;;;;;;;4.50;2.80;;;;;;;25.74;42.57;100607.14;104611;1286;69865;-88
2023/09/04 03:32:06;;;;;;;5.90;2.50;;;;;;;25.72;42.78;100603.55;104832;1286;69163;-87
2023/09/04 03:34:32;;;;;;;4.70;1.90;;;;;;;25.68;42.86;100602.20;104851;1289;69029;-88
2023/09/04 03:36:58;;;;;;;4.00;1.70;;;;;;;25.59;42.73;100605.08;104882;1286;69200;-89
2023/09/04 03:39:24;;;;;;;6.30;1.50;;;;;;;25.49;42.96;100603.55;104340;1286;360766;-89
2023/09/04 03:41:59;;;;;;;1.80;1.70;;;;;;;25.41;42.85;100602.79;104616;1286;69215;-91
2023/09/04 03:44:26;;;;;;;5.10;1.90;;;;;;;25.28;43.05;100607.35;104956;1288;73506;-88
2023/09/04 03:46:52;;;;;;;4.40;3.40;;;;;;;25.16;42.96;100606.63;104747;1288;69435;-88
2023/09/04 03:49:17;;;;;;;5.60;3.80;;;;;;;25.11;43.16;100605.36;105344;1287;68392;-88
2023/09/04 03:51:44;;;;;;;3.90;3.20;;;;;;;25.06;43.07;100604.96;104797;1290;69355;-88
2023/09/04 03:54:09;;;;;;;5.30;4.80;;;;;;;25.01;43.05;100605.34;104668;1279;69103;-88
2023/09/04 03:56:35;;;;;;;4.80;2.80;;;;;;;24.97;43.15;100605.20;104421;1288;69274;-88
2023/09/04 03:59:01;;;;;;;2.90;2.40;;;;;;;24.93;43.16;100605.10;104736;1288;69400;-88
2023/09/04 04:01:27;;;;;;;2.80;2.20;;;;;;;24.90;42.97;100608.64;104319;1287;69192;-88
2023/09/04 04:03:55;;;;;;;4.50;1.90;;;;;;;24.87;42.99;100611.83;104794;1286;69156;-88
2023/09/04 04:06:25;;;;;;;3.40;2.00;;;;;;;24.84;43.21;100608.05;104676;1288;74065;-87
2023/09/04 04:08:54;;;;;;;2.40;1.70;;;;;;;24.81;43.22;100607.17;104915;1285;69224;-89
2023/09/04 04:11:20;;;;;;;4.80;1.80;;;;;;;24.77;43.14;100608.16;104748;1289;69666;-88
2023/09/04 04:13:46;;;;;;;3.90;1.70;;;;;;;24.73;43.19;100606.77;104911;1288;69273;-88
2023/09/04 04:16:12;;;;;;;3.50;2.20;;;;;;;24.69;43.14;100611.23;104705;1288;69251;-88
2023/09/04 04:18:37;;;;;;;2.90;2.20;;;;;;;24.65;43.36;100610.91;104804;1285;69862;-88
2023/09/04 04:21:04;;;;;;;2.80;2.10;;;;;;;24.66;43.41;100605.45;105044;1279;69151;-88
2023/09/04 04:23:30;;;;;;;2.00;1.80;;;;;;;24.68;43.34;100603.67;104483;1285;69279;-88
2023/09/04 04:25:56;;;;;;;3.30;2.30;;;;;;;24.68;43.40;100602.06;104833;1288;69037;-88
2023/09/04 04:28:22;;;;;;;2.80;1.90;;;;;;;24.67;43.26;100604.96;104725;1286;69206;-87
2023/09/04 04:30:47;;;;;;;3.90;2.00;;;;;;;24.62;43.25;100599.69;104336;1291;69160;-88
2023/09/04 04:33:13;;;;;;;2.50;2.10;;;;;;;24.56;43.26;100603.00;104473;1288;69272;-88
2023/09/04 04:38:07;;;;;;;5.40;2.10;;;;;;;24.49;43.43;100605.87;104839;1285;67289;-88
2023/09/04 04:40:33;;;;;;;3.60;2.20;;;;;;;24.47;43.50;100606.05;104990;1288;69247;-88
2023/09/04 04:42:58;;;;;;;5.30;2.00;;;;;;;24.45;43.38;100609.98;104824;1286;69250;-87
2023/09/04 04:45:24;;;;;;;6.40;2.20;;;;;;;24.45;43.59;100611.77;104504;1288;69176;-88
2023/09/04 04:47:50;;;;;;;3.90;2.20;;;;;;;24.46;43.70;100616.70;104586;1289;69109;-88
2023/09/04 04:50:16;;;;;;;4.80;2.40;;;;;;;24.47;43.64;100616.98;104437;1287;73632;-88
2023/09/04 04:52:41;;;;;;;3.00;2.10;;;;;;;24.49;43.71;100616.67;105014;1289;67571;-85
2023/09/04 04:55:07;;;;;;;2.20;2.00;;;;;;;24.49;43.66;100615.02;104222;1287;69266;-88
2023/09/04 04:57:36;;;;;;;3.00;1.80;;;;;;;24.50;43.54;100615.38;104284;1290;69356;-88
2023/09/04 05:00:06;;;;;;;3.80;2.10;;;;;;;24.49;43.61;100616.57;104384;1291;66630;-88
2023/09/04 05:02:41;;;;;;;4.40;2.20;;;;;;;24.48;43.76;100619.46;104259;1289;73523;-90
2023/09/04 05:05:07;;;;;;;3.00;2.00;;;;;;;24.46;43.70;100617.98;104011;1291;69171;-88
2023/09/04 05:07:32;;;;;;;4.00;2.60;;;;;;;24.46;43.74;100617.56;104312;1290;69223;-88
2023/09/04 05:09:58;;;;;;;3.40;2.40;;;;;;;24.51;43.68;100619.06;104701;1288;69251;-88
2023/09/04 05:12:24;;;;;;;4.80;2.70;;;;;;;24.54;43.78;100626.48;104867;1287;69252;-87
2023/09/04 05:14:50;;;;;;;2.90;2.10;;;;;;;24.53;43.82;100625.22;104832;1285;69227;-87
2023/09/04 05:17:16;;;;;;;3.50;2.30;;;;;;;24.51;43.66;100625.82;104782;1288;69125;-87
2023/09/04 05:19:41;;;;;;;8.10;2.50;;;;;;;24.49;43.70;100628.30;105587;1285;69070;-88
2023/09/04 05:22:07;;;;;;;3.90;2.90;;;;;;;24.47;43.72;100627.70;105143;1285;69205;-88
2023/09/04 05:24:33;;;;;;;9.50;6.20;;;;;;;24.47;43.71;100622.35;104958;1285;69177;-88
2023/09/04 05:26:58;;;;;;;7.80;4.90;;;;;;;24.48;43.92;100624.30;104735;1286;69279;-87
2023/09/04 05:32:04;;;;;;;4.70;3.10;;;;;;;24.51;43.70;100626.92;105202;1289;69138;-87
2023/09/04 05:34:30;;;;;;;4.90;2.50;;;;;;;24.54;43.49;100629.46;106641;1290;67629;-87
2023/09/04 05:36:55;;;;;;;4.90;2.50;;;;;;;24.54;43.54;100628.95;106432;1290;66896;-86
2023/09/04 05:39:21;;;;;;;5.60;2.50;;;;;;;24.52;43.60;100627.13;106680;1288;69090;-87
2023/09/04 05:41:47;;;;;;;5.10;2.30;;;;;;;24.50;43.65;100627.45;106662;1289;67488;-88
2023/09/04 05:44:13;;;;;;;3.30;2.20;;;;;;;24.50;43.55;100631.88;106632;1289;73675;-88
2023/09/04 05:46:39;;;;;;;7.70;2.60;;;;;;;24.48;43.51;100636.48;106853;1285;67959;-88
2023/09/04 05:51:45;;;;;;;;;;;;;;;24.48;43.47;100632.16;105366;1286;69273;-89
2023/09/04 05:54:11;;;;;;;4.30;2.50;;;;;;;24.46;43.46;100634.14;105116;1285;67157;-90
2023/09/04 05:56:36;;;;;;;3.50;2.30;;;;;;;24.50;43.57;100633.99;105085;1281;69254;-89
2023/09/04 05:59:03;;;;;;;4.80;2.40;;;;;;;24.53;43.58;100631.69;104522;1288;69241;-89
2023/09/04 06:01:35;;;;;;;7.00;2.60;;;;;;;24.57;43.50;100636.27;104821;1286;69172;-89
2023/09/04 06:04:01;;;;;;;4.90;2.70;;;;;;;24.59;43.32;100640.61;104619;1286;69201;-89
2023/09/04 06:06:26;;;;;;;4.20;2.50;;;;;;;24.61;43.42;100644.44;104600;1288;69152;-88
2023/09/04 06:08:52;;;;;;;4.80;2.70;;;;;;;24.65;43.18;100642.04;104483;1288;67061;-89
2023/09/04 06:11:17;;;;;;;3.50;2.40;;;;;;;24.71;43.03;100645.02;104513;1292;69233;-89
2023/09/04 06:13:46;;;;;;;6.70;2.50;;;;;;;24.77;43.16;100646.54;104313;1285;69223;-89
2023/09/04 06:16:12;;;;;;;6.60;2.70;;;;;;;24.83;43.06;100648.67;104662;1290;69184;-89
2023/09/04 06:18:38;;;;;;;5.40;2.60;;;;;;;24.87;42.90;100648.73;104505;1287;73409;-89
2023/09/04 06:21:03;;;;;;;13.40;2.80;;;;;;;24.92;42.98;100654.67;104433;1288;69263;-89
2023/09/04 06:29:22;;;;;;;5.70;2.80;;;;;;;25.03;42.85;100654.83;105440;1288;68148;-91
2023/09/04 06:32:32;;;;;;;5.10;2.70;;;;;;;25.08;42.59;100656.46;105745;1287;72920;-91
2023/09/04 06:39:14;;;;;;;7.00;3.20;;;;;;;25.16;42.42;100669.79;86362;1292;68530;-91
2023/09/04 06:54:50;;;;;;;10.10;6.80;;;;;;;25.31;42.23;100673.89;96579;1285;66713;31
2023/09/04 06:57:15;;;;;;;10.10;6.40;;;;;;;25.34;42.05;100674.05;104255;1294;69217;-88
2023/09/04 06:59:41;;;;;;;10.30;7.10;;;;;;;25.36;42.00;100677.12;104120;1293;69372;-88
2023/09/04 08:44:36;;;;;;;3.60;2.50;;;;;;;25.14;41.30;100713.23;103913;1298;69179;-86
2023/09/04 08:47:01;;;;;;;3.80;2.60;;;;;;;25.15;41.55;100706.93;103409;1299;69520;-86
2023/09/04 08:49:27;;;;;;;3.50;2.50;;;;;;;25.18;41.62;100705.44;103365;1298;67471;-84
2023/09/04 08:51:53;;;;;;;5.60;2.80;;;;;;;25.20;41.60;100707.17;103386;1297;69309;-86
2023/09/04 08:54:18;;;;;;;3.80;2.80;;;;;;;25.23;41.37;100702.28;103513;1298;69239;-86
2023/09/04 08:56:44;;;;;;;4.20;2.70;;;;;;;25.25;41.62;100705.70;103309;1299;69237;-85
2023/09/04 08:59:09;;;;;;;4.00;3.20;;;;;;;25.28;41.42;100703.92;103637;1299;69285;-86
2023/09/04 09:04:08;;;;;;;8.80;2.90;;;;;;;25.32;41.37;100705.71;103795;1298;69057;-85
2023/09/04 09:06:34;;;;;;;6.40;2.60;;;;;;;25.34;41.42;100702.95;103467;1299;70142;-85
2023/09/04 09:09:00;;;;;;;5.10;3.00;;;;;;;25.35;41.31;100709.68;103437;1300;69342;-86
2023/09/04 09:11:25;;;;;;;5.00;2.40;;;;;;;25.36;41.30;100713.07;103929;1299;69152;-86
2023/09/04 09:13:51;;;;;;;10.90;3.50;;;;;;;25.39;41.35;100722.83;103636;1302;69324;-86
2023/09/04 09:16:20;;;;;;;13.70;3.80;;;;;;;25.39;41.21;100715.65;103423;1301;69160;-85
2023/09/04 09:18:46;;;;;;;6.40;3.10;;;;;;;25.40;41.31;100720.39;103345;1299;67325;-86
2023/09/04 09:21:22;;;;;;;13.40;3.60;;;;;;;25.41;41.22;100716.10;103520;1298;69168;-85
2023/09/04 09:23:48;;;;;;;11.80;5.20;;;;;;;25.42;41.20;100716.29;103445;1302;68944;-86
2023/09/04 09:26:14;;;;;;;8.20;3.70;;;;;;;25.44;41.26;100710.25;103536;1299;69252;-86
2023/09/04 09:28:44;;;;;;;10.30;3.00;;;;;;;25.45;41.21;100711.98;103510;1299;69417;-91
2023/09/04 09:31:11;;;;;;;9.00;3.00;;;;;;;25.46;41.30;100712.45;103694;1297;70241;-86
2023/09/04 09:33:37;;;;;;;4.20;2.10;;;;;;;25.44;41.30;100709.16;103479;1301;83035;-86
2023/09/04 09:36:02;;;;;;;2.70;2.40;;;;;;;25.42;41.15;100710.42;103353;1299;69344;-87
2023/09/04 09:38:28;;;;;;;5.50;2.50;;;;;;;25.40;41.39;100713.27;103660;1299;69394;-85
2023/09/04 09:40:55;;;;;;;2.60;2.30;;;;;;;25.39;41.51;100718.23;103377;1305;69408;-85
2023/09/04 09:43:20;;;;;;;4.00;2.40;;;;;;;25.40;41.40;100717.75;103429;1300;69242;-85
2023/09/04 09:45:45;;;;;;;3.60;2.50;;;;;;;25.42;41.61;100722.63;103611;1300;69303;-85
2023/09/04 09:48:11;;;;;;;5.90;2.60;;;;;;;25.42;41.45;100721.59;103496;1300;69158;-85
2023/09/04 09:50:40;;;;;;;7.20;2.70;;;;;;;25.44;41.46;100720.65;103485;1300;69234;-85
2023/09/04 09:53:08;;;;;;;7.50;2.90;;;;;;;25.45;41.42;100718.63;103350;1300;69251;-86
2023/09/04 09:55:38;;;;;;;5.50;2.50;;;;;;;25.46;41.33;100716.35;103635;1297;74590;-91
2023/09/04 09:58:04;;;;;;;5.80;2.40;;;;;;;25.47;41.28;100709.08;103394;1299;70430;-84
2023/09/04 10:00:29;;;;;;;4.70;2.30;;;;;;;25.47;41.39;100705.67;103187;1300;67028;-85
2023/09/04 10:02:55;;;;;;;3.40;2.00;;;;;;;25.47;41.30;100701.86;103303;1299;69268;-85
2023/09/04 10:05:24;;;;;;;4.20;2.10;;;;;;;25.47;41.22;100703.36;103397;1299;69277;-86
2023/09/04 10:07:51;;;;;;;2.50;2.30;;;;;;;25.47;40.92;100699.45;103590;1298;69223;-86
2023/09/04 10:10:17;;;;;;;2.80;2.50;;;;;;;25.47;41.10;100691.46;103417;1299;69071;-89
2023/09/04 10:12:50;;;;;;;9.40;2.90;;;;;;;25.47;41.08;100692.64;103778;1299;69317;-88
2023/09/04 10:15:26;;;;;;;9.90;6.10;;;;;;;25.45;40.73;100691.17;103888;1302;69205;-88
2023/09/04 10:17:58;;;;;;;4.20;3.80;;;;;;;25.43;40.72;100686.88;103605;1300;69283;-88
2023/09/04 10:20:25;;;;;;;5.80;2.60;;;;;;;25.41;40.54;100688.48;103653;1299;73861;-88
2023/09/04 10:22:59;;;;;;;3.50;2.30;;;;;;;25.42;40.57;100689.88;103547;1300;69275;-89
2023/09/04 10:25:31;;;;;;;8.10;2.10;;;;;;;25.42;40.67;100694.90;103684;1299;68927;-93
2023/09/04 10:28:09;;;;;;;3.30;2.30;;;;;;;25.44;40.42;100684.75;103320;1301;69224;-88
2023/09/04 10:30:38;;;;;;;5.30;2.30;;;;;;;25.46;40.58;100688.54;103556;1298;67037;-88
2023/09/04 10:33:04;;;;;;;4.20;2.50;;;;;;;25.48;40.63;100692.09;103533;1301;73995;-88
2023/09/04 10:35:29;;;;;;;3.10;2.20;;;;;;;25.51;40.46;100689.01;103247;1304;69349;-88
2023/09/04 10:37:56;;;;;;;4.30;2.50;;;;;;;25.54;40.44;100684.85;103302;1305;69224;-89
2023/09/04 10:40:22;;;;;;;3.40;2.60;;;;;;;25.57;40.36;100682.04;103553;1299;69166;-88
2023/09/04 10:42:48;;;;;;;2.60;2.40;;;;;;;25.59;40.19;100673.13;103377;1300;69355;-88
2023/09/04 10:45:14;;;;;;;3.20;2.10;;;;;;;25.62;40.39;100681.27;103433;1299;69153;-89
2023/09/04 10:47:46;;;;;;;3.80;2.10;;;;;;;25.65;40.39;100680.41;103353;1300;69056;-88
2023/09/04 10:50:37;;;;;;;2.70;1.80;;;;;;;25.67;40.16;100681.52;103430;1300;69144;-88
2023/09/04 10:53:07;;;;;;;4.30;2.00;;;;;;;25.69;40.16;100676.16;103602;1299;69232;-89
2023/09/04 10:55:36;;;;;;;4.50;2.10;;;;;;;25.69;39.93;100672.66;103644;1302;69201;-89
2023/09/04 10:58:04;;;;;;;3.50;2.60;;;;;;;25.70;39.88;100679.52;103299;1300;73397;-89
2023/09/04 11:00:37;;;;;;;3.00;2.20;;;;;;;25.69;39.83;100685.09;103734;1299;69181;-89
2023/09/04 11:03:21;;;;;;;6.40;2.40;;;;;;;25.70;39.90;100685.14;103294;1300;69103;-89
2023/09/04 11:06:05;;;;;;;7.30;2.20;;;;;;;25.70;39.66;100687.40;103523;1300;69112;-88
2023/09/04 11:08:38;;;;;;;5.60;3.80;;;;;;;25.72;39.88;100690.05;103576;1298;69541;-88
2023/09/04 11:11:06;;;;;;;6.30;4.30;;;;;;;25.74;39.87;100691.55;103355;1299;73433;-89
2023/09/04 11:13:38;;;;;;;8.60;7.30;;;;;;;25.74;39.84;100691.18;103723;1299;69590;-89
2023/09/04 11:16:16;;;;;;;9.40;6.10;;;;;;;25.76;39.47;100693.20;103455;1300;69219;-88
2023/09/04 11:18:42;;;;;;;8.70;6.40;;;;;;;25.79;39.67;100697.27;103455;1298;69208;-88
2023/09/04 11:21:10;;;;;;;5.40;4.90;;;;;;;25.80;39.64;100689.73;103390;1305;69332;-89
2023/09/04 11:23:36;;;;;;;5.50;3.90;;;;;;;25.83;39.59;100689.44;103332;1299;74249;-88
2023/09/04 11:26:02;;;;;;;6.10;3.70;;;;;;;25.85;39.50;100687.62;103721;1300;69258;-89
2023/09/04 11:28:28;;;;;;;3.50;3.10;;;;;;;25.86;39.49;100692.02;103675;1298;69218;-88
2023/09/04 11:30:57;;;;;;;3.90;2.60;;;;;;;25.88;39.31;100688.66;103205;1300;69227;-88
2023/09/04 11:33:27;;;;;;;3.20;2.50;;;;;;;25.88;39.35;100690.02;103696;1299;69167;-88
2023/09/04 11:36:03;;;;;;;2.50;2.30;;;;;;;25.89;39.62;100687.69;103531;1304;74423;-89
2023/09/04 11:38:30;;;;;;;7.20;2.90;;;;;;;25.89;39.57;100689.23;103569;1300;69201;-89
2023/09/04 11:40:55;;;;;;;3.80;2.30;;;;;;;25.89;39.40;100691.70;103475;1298;69181;-88
2023/09/04 11:43:22;;;;;;;2.80;2.40;;;;;;;25.90;39.49;100692.09;103493;1299;70049;-89
2023/09/04 11:45:55;;;;;;;2.70;2.50;;;;;;;25.91;39.33;100698.42;103526;1302;67515;-89
2023/09/04 11:48:25;;;;;;;3.30;2.50;;;;;;;25.92;39.52;100693.77;103697;1299;74737;-88
2023/09/04 11:50:51;;;;;;;3.60;2.40;;;;;;;25.92;39.53;100691.02;103573;1299;69208;-88
2023/09/04 11:53:18;;;;;;;5.60;2.40;;;;;;;25.91;39.32;100691.52;103486;1303;69313;-88
2023/09/04 11:55:44;;;;;;;2.90;2.30;;;;;;;25.91;39.33;100690.73;103508;1302;69277;-88
2023/09/04 11:58:11;;;;;;;3.20;2.60;;;;;;;25.90;39.41;100685.35;103652;1299;69211;-94
2023/09/04 12:00:39;;;;;;;4.20;2.50;;;;;;;25.90;39.16;100679.53;103508;1302;69277;-88
2023/09/04 12:03:05;;;;;;;3.40;2.40;;;;;;;25.90;39.35;100678.02;103505;1299;69238;-88
2023/09/04 12:05:32;;;;;;;7.00;2.40;;;;;;;25.91;39.37;100676.52;103585;1300;69226;-89
2023/09/04 12:07:58;;;;;;;3.80;2.40;;;;;;;25.91;39.38;100674.40;103720;1298;69262;-87
2023/09/04 12:10:24;;;;;;;4.70;2.40;;;;;;;25.91;39.35;100674.19;103501;1300;69325;-87
2023/09/04 12:12:51;;;;;;;4.30;2.50;;;;;;;25.92;39.39;100689.29;103091;1304;69373;-88
2023/09/04 12:15:43;;;;;;;6.00;2.40;;;;;;;25.91;39.32;100681.41;103811;1299;67374;-88
2023/09/04 12:18:09;;;;;;;2.90;2.50;;;;;;;25.91;39.37;100678.00;103581;1298;69271;-88
2023/09/04 12:20:44;;;;;;;6.90;2.20;;;;;;;25.92;39.53;100682.83;103250;1300;69194;-87
2023/09/04 12:23:10;;;;;;;4.00;2.30;;;;;;;25.93;39.60;100680.19;103501;1300;69255;-88
2023/09/04 12:25:38;;;;;;;2.70;2.10;;;;;;;25.94;39.75;100674.35;103754;1298;69303;-88
2023/09/04 12:28:11;;;;;;;2.40;2.20;;;;;;;25.94;39.58;100671.52;103935;1299;69293;-93
2023/09/04 12:30:40;;;;;;;4.40;2.40;;;;;;;25.94;39.43;100669.15;103740;1299;69278;-88
2023/09/04 12:33:10;;;;;;;2.90;2.40;;;;;;;25.98;39.66;100671.61;104814;1298;67008;-88
2023/09/04 12:35:35;;;;;;;2.20;2.00;;;;;;;25.98;39.50;100669.23;103487;1299;69035;-87
2023/09/04 12:38:01;;;;;;;5.50;2.60;;;;;;;25.99;39.48;100667.92;103511;1299;69204;-87
2023/09/04 12:40:27;;;;;;;2.80;2.20;;;;;;;26.01;39.72;100667.23;103672;1301;70640;-88
2023/09/04 12:45:26;;;;;;;3.30;2.50;;;;;;;26.02;39.36;100665.13;103724;1293;69376;-88
2023/09/04 12:47:52;;;;;;;7.30;2.50;;;;;;;26.02;39.55;100666.67;103529;1296;69182;-88
2023/09/04 12:50:18;;;;;;;2.60;2.40;;;;;;;26.02;39.51;100664.30;103474;1297;69304;-88
2023/09/04 12:52:47;;;;;;;2.20;2.00;;;;;;;26.04;39.50;100663.30;103713;1297;69820;-88
2023/09/04 12:55:14;;;;;;;4.10;2.30;;;;;;;26.05;39.43;100658.07;103603;1297;69714;-89
2023/09/04 12:57:40;;;;;;;3.30;2.20;;;;;;;26.06;39.25;100655.06;103285;1297;69265;-88
2023/09/04 13:00:06;;;;;;;3.00;2.10;;;;;;;26.07;39.51;100656.70;103685;1297;69312;-89
2023/09/04 13:02:33;;;;;;;3.00;2.10;;;;;;;26.08;39.40;100655.96;103377;1297;69254;-89
2023/09/04 13:04:58;;;;;;;3.60;2.20;;;;;;;26.08;39.34;100660.27;103631;1299;69309;-89
2023/09/04 13:07:24;;;;;;;3.40;2.10;;;;;;;26.10;39.44;100655.50;103831;1297;67280;-89
2023/09/04 13:09:56;;;;;;;2.50;2.30;;;;;;;26.11;39.48;100658.44;103648;1301;67275;-94
2023/09/04 13:12:22;;;;;;;3.90;2.00;;;;;;;26.12;39.50;100657.91;103266;1299;69135;-89
2023/09/04 13:14:47;;;;;;;3.60;2.20;;;;;;;26.12;39.37;100656.10;103367;1300;69241;-88
2023/09/04 13:17:13;;;;;;;3.90;2.20;;;;;;;26.11;39.44;100654.98;103474;1305;69272;-87
2023/09/04 13:19:38;;;;;;;2.20;2.00;;;;;;;26.11;39.21;100657.10;103534;1299;69221;-87
2023/09/04 13:22:04;;;;;;;2.80;2.20;;;;;;;26.10;39.48;100660.05;103258;1299;69375;-84
2023/09/04 13:24:29;;;;;;;4.00;2.30;;;;;;;26.10;39.38;100662.83;103139;1300;74599;-86
2023/09/04 13:26:55;;;;;;;2.80;2.40;;;;;;;26.09;39.40;100665.93;103348;1300;69279;-88
2023/09/04 13:29:21;;;;;;;3.70;2.80;;;;;;;26.10;39.43;100665.25;103366;1299;69339;-88
2023/09/04 13:31:46;;;;;;;3.80;2.20;;;;;;;26.09;39.36;100664.90;103286;1299;69355;-88
2023/09/04 13:34:12;;;;;;;4.50;2.30;;;;;;;26.09;39.48;100664.48;103383;1300;69404;-88
2023/09/04 13:39:13;;;;;;;2.50;2.30;;;;;;;26.07;39.35;100663.86;103614;1296;69280;-88
2023/09/04 13:41:38;;;;;;;2.60;2.20;;;;;;;26.06;39.19;100665.84;103653;1297;69326;-88
2023/09/04 13:44:04;;;;;;;2.60;2.30;;;;;;;26.06;39.31;100667.08;103604;1297;69299;-88